createdAt,value
2016-12-20T00:00:23.393Z,0
2016-12-20T00:01:34.092Z,0
2016-12-20T00:02:44.828Z,0
2016-12-20T00:03:55.534Z,0
2016-12-20T00:05:06.277Z,0
2016-12-20T00:06:17.002Z,0
2016-12-20T00:07:27.743Z,0
2016-12-20T00:08:38.444Z,0
2016-12-20T00:09:49.165Z,0
2016-12-20T00:10:59.899Z,0
2016-12-20T00:12:10.628Z,0
2016-12-20T00:13:21.352Z,0
2016-12-20T00:14:32.086Z,0
2016-12-20T00:15:42.816Z,0
2016-12-20T00:16:53.533Z,0
2016-12-20T00:18:04.253Z,0
2016-12-20T00:19:14.957Z,0
2016-12-20T00:20:25.703Z,0
2016-12-20T00:21:36.442Z,0
2016-12-20T00:22:47.173Z,0
2016-12-20T00:23:57.913Z,0
2016-12-20T00:25:08.637Z,0
2016-12-20T00:26:19.397Z,0
2016-12-20T00:27:30.151Z,0
2016-12-20T00:28:40.925Z,0
2016-12-20T00:29:51.683Z,0
2016-12-20T00:31:02.716Z,0
2016-12-20T00:32:13.435Z,0
2016-12-20T00:33:24.156Z,0
2016-12-20T00:34:34.880Z,0
2016-12-20T00:35:45.627Z,0
2016-12-20T00:36:56.373Z,0
2016-12-20T00:38:07.115Z,0
2016-12-20T00:39:17.820Z,0
2016-12-20T00:40:28.537Z,0
2016-12-20T00:41:39.237Z,0
2016-12-20T00:42:49.979Z,0
2016-12-20T00:44:00.695Z,0
2016-12-20T00:45:11.416Z,0
2016-12-20T00:46:22.137Z,0
2016-12-20T00:47:32.835Z,0
2016-12-20T00:48:43.585Z,0
2016-12-20T00:49:54.326Z,0
2016-12-20T00:51:05.047Z,0
2016-12-20T00:52:15.789Z,0
2016-12-20T00:53:26.514Z,0
2016-12-20T00:54:37.264Z,0
2016-12-20T00:55:47.980Z,0
2016-12-20T00:56:58.704Z,0
2016-12-20T00:58:09.722Z,0
2016-12-20T00:59:20.447Z,0
2016-12-20T01:00:31.182Z,0
2016-12-20T01:01:41.910Z,0
2016-12-20T01:02:52.607Z,0
2016-12-20T01:04:03.629Z,0
2016-12-20T01:05:14.349Z,0
2016-12-20T01:06:25.096Z,0
2016-12-20T01:07:35.844Z,0
2016-12-20T01:08:46.590Z,0
2016-12-20T01:09:57.613Z,0
2016-12-20T01:11:08.364Z,0
2016-12-20T01:12:19.103Z,0
2016-12-20T01:13:29.853Z,0
2016-12-20T01:14:40.584Z,0
2016-12-20T01:15:51.313Z,0
2016-12-20T01:17:02.039Z,0
2016-12-20T01:18:12.755Z,0
2016-12-20T01:19:23.476Z,0
2016-12-20T01:20:34.197Z,0
2016-12-20T01:21:44.903Z,0
2016-12-20T01:22:55.635Z,0
2016-12-20T01:24:06.341Z,0
2016-12-20T01:25:17.060Z,0
2016-12-20T01:26:27.777Z,0
2016-12-20T01:27:38.473Z,0
2016-12-20T01:28:49.222Z,0
2016-12-20T01:29:59.966Z,0
2016-12-20T01:31:10.689Z,0
2016-12-20T01:32:21.457Z,0
2016-12-20T01:33:32.184Z,0
2016-12-20T01:34:42.874Z,0
2016-12-20T01:35:53.573Z,0
2016-12-20T01:37:04.917Z,0
2016-12-20T01:38:15.633Z,0
2016-12-20T01:39:26.337Z,0
2016-12-20T01:40:37.060Z,0
2016-12-20T01:41:47.804Z,0
2016-12-20T01:42:58.540Z,0
2016-12-20T01:44:09.267Z,0
2016-12-20T01:45:20.006Z,0
2016-12-20T01:46:30.716Z,0
2016-12-20T01:47:41.460Z,0
2016-12-20T01:48:52.184Z,0
2016-12-20T01:50:02.931Z,0
2016-12-20T01:51:13.647Z,0
2016-12-20T01:52:24.366Z,0
2016-12-20T01:53:35.091Z,0
2016-12-20T01:54:45.839Z,0
2016-12-20T01:55:56.578Z,0
2016-12-20T01:57:07.300Z,0
2016-12-20T01:58:18.001Z,0
2016-12-20T01:59:28.716Z,0
2016-12-20T02:00:39.413Z,0
2016-12-20T02:01:50.158Z,0
2016-12-20T02:03:00.884Z,0
2016-12-20T02:04:11.626Z,0
2016-12-20T02:05:22.330Z,0
2016-12-20T02:06:33.096Z,0
2016-12-20T02:07:43.870Z,0
2016-12-20T02:08:54.588Z,0
2016-12-20T02:10:05.309Z,0
2016-12-20T02:11:16.052Z,0
2016-12-20T02:12:26.754Z,0
2016-12-20T02:13:37.486Z,0
2016-12-20T02:14:48.199Z,0
2016-12-20T02:15:58.940Z,0
2016-12-20T02:17:09.675Z,0
2016-12-20T02:18:20.406Z,0
2016-12-20T02:19:31.129Z,0
2016-12-20T02:20:41.845Z,0
2016-12-20T02:21:52.546Z,0
2016-12-20T02:23:03.267Z,0
2016-12-20T02:24:13.992Z,0
2016-12-20T02:25:24.757Z,0
2016-12-20T02:26:35.778Z,0
2016-12-20T02:27:46.492Z,0
2016-12-20T02:28:57.196Z,0
2016-12-20T02:30:07.933Z,0
2016-12-20T02:31:18.959Z,0
2016-12-20T02:32:29.685Z,0
2016-12-20T02:33:40.379Z,0
2016-12-20T02:34:51.097Z,0
2016-12-20T02:36:01.846Z,0
2016-12-20T02:37:12.582Z,0
2016-12-20T02:38:23.286Z,0
2016-12-20T02:39:33.981Z,0
2016-12-20T02:40:44.678Z,0
2016-12-20T02:41:55.398Z,0
2016-12-20T02:43:06.119Z,0
2016-12-20T02:44:16.847Z,0
2016-12-20T02:45:27.591Z,0
2016-12-20T02:46:38.313Z,0
2016-12-20T02:47:49.059Z,0
2016-12-20T02:48:59.766Z,0
2016-12-20T02:50:10.523Z,0
2016-12-20T02:51:21.244Z,0
2016-12-20T02:52:31.987Z,0
2016-12-20T02:53:42.729Z,0
2016-12-20T02:54:53.460Z,0
2016-12-20T02:56:04.179Z,0
2016-12-20T02:57:14.928Z,0
2016-12-20T02:58:25.664Z,0
2016-12-20T02:59:36.389Z,0
2016-12-20T03:00:47.106Z,0
2016-12-20T03:01:57.852Z,0
2016-12-20T03:03:08.554Z,0
2016-12-20T03:04:19.572Z,0
2016-12-20T03:05:30.293Z,0
2016-12-20T03:06:41.018Z,0
2016-12-20T03:07:51.764Z,0
2016-12-20T03:09:02.481Z,0
2016-12-20T03:10:13.181Z,0
2016-12-20T03:11:23.925Z,0
2016-12-20T03:12:34.645Z,0
2016-12-20T03:13:45.366Z,0
2016-12-20T03:14:56.067Z,0
2016-12-20T03:16:06.787Z,0
2016-12-20T03:17:17.529Z,0
2016-12-20T03:18:28.235Z,0
2016-12-20T03:19:38.955Z,0
2016-12-20T03:20:49.695Z,0
2016-12-20T03:22:00.418Z,0
2016-12-20T03:23:11.142Z,0
2016-12-20T03:24:21.883Z,0
2016-12-20T03:25:32.629Z,0
2016-12-20T03:26:43.363Z,0
2016-12-20T03:27:54.096Z,0
2016-12-20T03:29:04.838Z,0
2016-12-20T03:30:15.567Z,0
2016-12-20T03:31:26.306Z,0
2016-12-20T03:32:37.031Z,0
2016-12-20T03:33:47.770Z,0
2016-12-20T03:34:58.497Z,0
2016-12-20T03:36:09.239Z,0
2016-12-20T03:37:19.935Z,0
2016-12-20T03:38:30.640Z,0
2016-12-20T03:39:41.381Z,0
2016-12-20T03:40:52.123Z,0
2016-12-20T03:42:02.848Z,0
2016-12-20T03:43:13.618Z,0
2016-12-20T03:44:24.393Z,0
2016-12-20T03:45:35.133Z,0
2016-12-20T03:46:45.881Z,0
2016-12-20T03:47:56.624Z,0
2016-12-20T03:49:07.338Z,0
2016-12-20T03:50:18.066Z,0
2016-12-20T03:51:28.792Z,0
2016-12-20T03:52:39.536Z,0
2016-12-20T03:53:50.287Z,0
2016-12-20T03:55:01.029Z,0
2016-12-20T03:56:11.799Z,0
2016-12-20T03:57:22.517Z,0
2016-12-20T03:58:33.241Z,0
2016-12-20T03:59:43.959Z,0
2016-12-20T04:00:54.698Z,0
2016-12-20T04:02:05.404Z,0
2016-12-20T04:03:16.147Z,0
2016-12-20T04:04:26.874Z,0
2016-12-20T04:05:37.642Z,0
2016-12-20T04:06:48.335Z,0
2016-12-20T04:07:59.031Z,0
2016-12-20T04:09:09.777Z,0
2016-12-20T04:10:20.501Z,0
2016-12-20T04:11:31.222Z,0
2016-12-20T04:12:41.943Z,0
2016-12-20T04:13:52.653Z,0
2016-12-20T04:15:03.403Z,0
2016-12-20T04:16:14.112Z,0
2016-12-20T04:17:24.899Z,0
2016-12-20T04:18:35.624Z,0
2016-12-20T04:19:46.359Z,0
2016-12-20T04:20:57.087Z,0
2016-12-20T04:22:07.808Z,0
2016-12-20T04:23:18.525Z,0
2016-12-20T04:24:29.258Z,0
2016-12-20T04:25:40.005Z,0
2016-12-20T04:26:50.717Z,0
2016-12-20T04:28:01.438Z,0
2016-12-20T04:29:12.151Z,0
2016-12-20T04:30:22.858Z,0
2016-12-20T04:31:33.609Z,0
2016-12-20T04:32:44.347Z,0
2016-12-20T04:33:55.048Z,0
2016-12-20T04:35:05.788Z,0
2016-12-20T04:36:16.514Z,0
2016-12-20T04:37:27.230Z,0
2016-12-20T04:38:37.943Z,0
2016-12-20T04:39:48.973Z,0
2016-12-20T04:40:59.669Z,0
2016-12-20T04:42:10.364Z,0
2016-12-20T04:43:21.082Z,0
2016-12-20T04:44:31.815Z,0
2016-12-20T04:45:42.527Z,0
2016-12-20T04:46:53.301Z,0
2016-12-20T04:48:04.021Z,0
2016-12-20T04:49:14.718Z,0
2016-12-20T04:50:25.440Z,0
2016-12-20T04:51:36.135Z,0
2016-12-20T04:52:46.857Z,0
2016-12-20T04:53:57.577Z,0
2016-12-20T04:55:08.300Z,0
2016-12-20T04:56:19.016Z,0
2016-12-20T04:57:29.742Z,0
2016-12-20T04:58:40.451Z,0
2016-12-20T04:59:51.183Z,0
2016-12-20T05:01:01.926Z,0
2016-12-20T05:02:12.629Z,0
2016-12-20T05:03:23.371Z,0
2016-12-20T05:04:34.119Z,0
2016-12-20T05:05:44.852Z,0
2016-12-20T05:06:55.558Z,0
2016-12-20T05:08:06.304Z,0
2016-12-20T05:09:16.998Z,0
2016-12-20T05:10:27.719Z,0
2016-12-20T05:11:38.443Z,0
2016-12-20T05:12:49.188Z,0
2016-12-20T05:13:59.931Z,0
2016-12-20T05:15:10.645Z,0
2016-12-20T05:16:21.354Z,0
2016-12-20T05:17:32.075Z,0
2016-12-20T05:18:42.793Z,0
2016-12-20T05:19:53.514Z,0
2016-12-20T05:21:04.236Z,0
2016-12-20T05:22:14.982Z,0
2016-12-20T05:23:25.720Z,0
2016-12-20T05:24:36.448Z,0
2016-12-20T05:25:47.170Z,0
2016-12-20T05:26:57.895Z,0
2016-12-20T05:28:08.633Z,0
2016-12-20T05:29:19.355Z,0
2016-12-20T05:30:30.078Z,0
2016-12-20T05:31:40.817Z,0
2016-12-20T05:32:51.517Z,0
2016-12-20T05:34:02.216Z,0
2016-12-20T05:35:12.936Z,0
2016-12-20T05:36:23.658Z,0
2016-12-20T05:37:34.393Z,0
2016-12-20T05:38:45.121Z,0
2016-12-20T05:39:55.846Z,0
2016-12-20T05:41:06.573Z,0
2016-12-20T05:42:17.306Z,0
2016-12-20T05:43:28.059Z,0
2016-12-20T05:44:38.801Z,0
2016-12-20T05:45:49.550Z,0
2016-12-20T05:47:00.274Z,0
2016-12-20T05:48:10.989Z,0
2016-12-20T05:49:21.685Z,0
2016-12-20T05:50:32.711Z,0
2016-12-20T05:51:43.434Z,0
2016-12-20T05:52:54.150Z,0
2016-12-20T05:54:04.849Z,0
2016-12-20T05:55:15.593Z,0
2016-12-20T05:56:26.328Z,0
2016-12-20T05:57:37.127Z,0
2016-12-20T05:58:47.883Z,0
2016-12-20T05:59:58.628Z,0
2016-12-20T06:01:09.351Z,0
2016-12-20T06:02:20.369Z,0
2016-12-20T06:03:31.115Z,0
2016-12-20T06:04:41.836Z,0
2016-12-20T06:05:52.558Z,0
2016-12-20T06:07:03.297Z,0
2016-12-20T06:08:14.051Z,0
2016-12-20T06:09:25.121Z,0
2016-12-20T06:10:35.864Z,0
2016-12-20T06:11:46.588Z,0
2016-12-20T06:12:57.331Z,0
2016-12-20T06:14:08.058Z,0
2016-12-20T06:15:18.772Z,0
2016-12-20T06:16:29.497Z,0
2016-12-20T06:17:40.249Z,0
2016-12-20T06:18:50.985Z,0
2016-12-20T06:20:01.691Z,0
2016-12-20T06:21:12.408Z,0
2016-12-20T06:22:23.148Z,0
2016-12-20T06:23:33.872Z,0
2016-12-20T06:24:44.596Z,0
2016-12-20T06:25:55.341Z,0
2016-12-20T06:27:06.085Z,0
2016-12-20T06:28:16.829Z,0
2016-12-20T06:29:27.582Z,0
2016-12-20T06:30:38.349Z,0
2016-12-20T06:31:49.116Z,0
2016-12-20T06:32:59.837Z,4
2016-12-20T06:34:10.563Z,4
2016-12-20T06:35:21.275Z,4
2016-12-20T06:36:32.004Z,0
2016-12-20T06:37:42.750Z,4
2016-12-20T06:38:53.492Z,4
2016-12-20T06:40:04.213Z,0
2016-12-20T06:41:14.951Z,4
2016-12-20T06:42:25.657Z,4
2016-12-20T06:43:36.379Z,8
2016-12-20T06:44:47.130Z,4
2016-12-20T06:45:57.849Z,8
2016-12-20T06:47:08.560Z,12
2016-12-20T06:48:19.289Z,12
2016-12-20T06:49:30.006Z,16
2016-12-20T06:50:40.702Z,16
2016-12-20T06:51:51.429Z,20
2016-12-20T06:53:02.148Z,24
2016-12-20T06:54:12.890Z,28
2016-12-20T06:55:23.611Z,32
2016-12-20T06:56:34.313Z,36
2016-12-20T06:57:45.095Z,40
2016-12-20T06:58:55.808Z,44
2016-12-20T07:00:06.562Z,48
2016-12-20T07:01:17.290Z,56
2016-12-20T07:02:28.312Z,64
2016-12-20T07:03:39.030Z,68
2016-12-20T07:04:49.738Z,72
2016-12-20T07:06:00.493Z,84
2016-12-20T07:07:11.230Z,96
2016-12-20T07:08:21.970Z,100
2016-12-20T07:09:32.690Z,112
2016-12-20T07:10:43.402Z,124
2016-12-20T07:11:54.126Z,140
2016-12-20T07:13:04.855Z,156
2016-12-20T07:14:15.625Z,176
2016-12-20T07:15:26.368Z,184
2016-12-20T07:16:37.106Z,192
2016-12-20T07:17:47.864Z,216
2016-12-20T07:18:58.599Z,216
2016-12-20T07:20:09.308Z,236
2016-12-20T07:21:20.040Z,260
2016-12-20T07:22:30.750Z,304
2016-12-20T07:23:41.493Z,312
2016-12-20T07:24:52.238Z,336
2016-12-20T07:26:02.980Z,356
2016-12-20T07:27:13.701Z,364
2016-12-20T07:28:24.425Z,388
2016-12-20T07:29:35.146Z,396
2016-12-20T07:30:45.871Z,388
2016-12-20T07:31:56.641Z,460
2016-12-20T07:33:07.376Z,528
2016-12-20T07:34:18.110Z,484
2016-12-20T07:35:28.867Z,508
2016-12-20T07:36:39.597Z,524
2016-12-20T07:37:50.659Z,548
2016-12-20T07:39:01.359Z,612
2016-12-20T07:40:12.059Z,624
2016-12-20T07:41:23.101Z,624
2016-12-20T07:42:33.801Z,680
2016-12-20T07:43:44.521Z,696
2016-12-20T07:44:55.267Z,712
2016-12-20T07:46:05.988Z,724
2016-12-20T07:47:16.736Z,728
2016-12-20T07:48:27.485Z,764
2016-12-20T07:49:38.206Z,816
2016-12-20T07:50:48.944Z,836
2016-12-20T07:51:59.670Z,844
2016-12-20T07:53:10.410Z,836
2016-12-20T07:54:21.132Z,836
2016-12-20T07:55:31.856Z,932
2016-12-20T07:56:42.594Z,1048
2016-12-20T07:57:53.320Z,1076
2016-12-20T07:59:04.041Z,1144
2016-12-20T08:00:14.768Z,1084
2016-12-20T08:01:25.503Z,1140
2016-12-20T08:02:36.222Z,1072
2016-12-20T08:03:46.930Z,1172
2016-12-20T08:04:57.665Z,1236
2016-12-20T08:06:08.367Z,1480
2016-12-20T08:07:19.104Z,1336
2016-12-20T08:08:29.861Z,1200
2016-12-20T08:09:40.582Z,1272
2016-12-20T08:10:51.329Z,1216
2016-12-20T08:12:02.075Z,1228
2016-12-20T08:13:12.791Z,1292
2016-12-20T08:14:23.488Z,1324
2016-12-20T08:15:34.209Z,1280
2016-12-20T08:16:44.951Z,1388
2016-12-20T08:17:55.668Z,1512
2016-12-20T08:19:06.418Z,1524
2016-12-20T08:20:17.122Z,1712
2016-12-20T08:21:27.864Z,1656
2016-12-20T08:22:38.616Z,1584
2016-12-20T08:23:49.386Z,1700
2016-12-20T08:25:00.103Z,1720
2016-12-20T08:26:10.828Z,1836
2016-12-20T08:27:21.549Z,1716
2016-12-20T08:28:32.294Z,1856
2016-12-20T08:29:43.065Z,1916
2016-12-20T08:30:53.787Z,1844
2016-12-20T08:32:04.533Z,2044
2016-12-20T08:33:15.270Z,1808
2016-12-20T08:34:25.972Z,1884
2016-12-20T08:35:36.667Z,1856
2016-12-20T08:36:47.397Z,2104
2016-12-20T08:37:58.114Z,2412
2016-12-20T08:39:08.835Z,1980
2016-12-20T08:40:19.556Z,2136
2016-12-20T08:41:30.280Z,2040
2016-12-20T08:42:40.996Z,2064
2016-12-20T08:43:51.719Z,1876
2016-12-20T08:45:02.482Z,2232
2016-12-20T08:46:13.210Z,2672
2016-12-20T08:47:23.956Z,2940
2016-12-20T08:48:34.681Z,2280
2016-12-20T08:49:45.421Z,2320
2016-12-20T08:50:56.446Z,2404
2016-12-20T08:52:07.197Z,2412
2016-12-20T08:53:17.934Z,2640
2016-12-20T08:54:28.666Z,2952
2016-12-20T08:55:39.404Z,2748
2016-12-20T08:56:50.150Z,2404
2016-12-20T08:58:00.868Z,2520
2016-12-20T08:59:11.593Z,2520
2016-12-20T09:00:22.338Z,2364
2016-12-20T09:01:33.063Z,2660
2016-12-20T09:02:43.785Z,2920
2016-12-20T09:03:54.544Z,3160
2016-12-20T09:05:05.270Z,2652
2016-12-20T09:06:15.991Z,2628
2016-12-20T09:07:26.712Z,2520
2016-12-20T09:08:37.433Z,2828
2016-12-20T09:09:48.176Z,3148
2016-12-20T09:10:58.900Z,3120
2016-12-20T09:12:09.623Z,3044
2016-12-20T09:13:20.342Z,2712
2016-12-20T09:14:31.056Z,2716
2016-12-20T09:15:41.806Z,3000
2016-12-20T09:16:52.531Z,3324
2016-12-20T09:18:03.269Z,3140
2016-12-20T09:19:14.027Z,3320
2016-12-20T09:20:24.744Z,3428
2016-12-20T09:21:35.470Z,3460
2016-12-20T09:22:46.488Z,3252
2016-12-20T09:23:57.236Z,3308
2016-12-20T09:25:07.982Z,3260
2016-12-20T09:26:18.702Z,3828
2016-12-20T09:27:29.426Z,3036
2016-12-20T09:28:40.145Z,2960
2016-12-20T09:29:50.868Z,3308
2016-12-20T09:31:01.593Z,3244
2016-12-20T09:32:12.333Z,2776
2016-12-20T09:33:23.055Z,2828
2016-12-20T09:34:33.816Z,3068
2016-12-20T09:35:44.518Z,3080
2016-12-20T09:36:55.239Z,3260
2016-12-20T09:38:06.286Z,3364
2016-12-20T09:39:17.007Z,3256
2016-12-20T09:40:27.748Z,3300
2016-12-20T09:41:38.473Z,3252
2016-12-20T09:42:49.198Z,3764
2016-12-20T09:43:59.943Z,3820
2016-12-20T09:45:10.682Z,3440
2016-12-20T09:46:21.410Z,3052
2016-12-20T09:47:32.171Z,3204
2016-12-20T09:48:42.878Z,3620
2016-12-20T09:49:53.625Z,2928
2016-12-20T09:51:04.342Z,3300
2016-12-20T09:52:15.065Z,3436
2016-12-20T09:53:25.783Z,3360
2016-12-20T09:54:36.509Z,3360
2016-12-20T09:55:47.555Z,3132
2016-12-20T09:56:58.271Z,3396
2016-12-20T09:58:09.020Z,2976
2016-12-20T09:59:20.044Z,3248
2016-12-20T10:00:30.784Z,3276
2016-12-20T10:01:41.484Z,3212
2016-12-20T10:02:52.247Z,3012
2016-12-20T10:04:02.980Z,3208
2016-12-20T10:05:13.722Z,3660
2016-12-20T10:06:24.469Z,3532
2016-12-20T10:07:35.210Z,3372
2016-12-20T10:08:45.935Z,3520
2016-12-20T10:09:56.680Z,3708
2016-12-20T10:11:07.399Z,3540
2016-12-20T10:12:18.128Z,3432
2016-12-20T10:13:28.866Z,3520
2016-12-20T10:14:39.582Z,3120
2016-12-20T10:15:50.308Z,3328
2016-12-20T10:17:01.054Z,3436
2016-12-20T10:18:11.828Z,3464
2016-12-20T10:19:22.545Z,3572
2016-12-20T10:20:33.266Z,3904
2016-12-20T10:21:43.989Z,3676
2016-12-20T10:22:54.704Z,3768
2016-12-20T10:24:05.409Z,3964
2016-12-20T10:25:16.449Z,3936
2016-12-20T10:26:27.175Z,3644
2016-12-20T10:27:37.920Z,3844
2016-12-20T10:28:48.667Z,3792
2016-12-20T10:29:59.409Z,3636
2016-12-20T10:31:10.110Z,4096
2016-12-20T10:32:20.805Z,3780
2016-12-20T10:33:31.521Z,3564
2016-12-20T10:34:42.246Z,3644
2016-12-20T10:35:52.981Z,3552
2016-12-20T10:37:03.710Z,3736
2016-12-20T10:38:14.448Z,3856
2016-12-20T10:39:25.176Z,3828
2016-12-20T10:40:35.906Z,4164
2016-12-20T10:41:46.647Z,3992
2016-12-20T10:42:57.395Z,3372
2016-12-20T10:44:08.137Z,3632
2016-12-20T10:45:18.861Z,3988
2016-12-20T10:46:29.607Z,4164
2016-12-20T10:47:40.352Z,4048
2016-12-20T10:48:51.098Z,3744
2016-12-20T10:50:01.840Z,3760
2016-12-20T10:51:12.563Z,3972
2016-12-20T10:52:23.278Z,3660
2016-12-20T10:53:34.000Z,4220
2016-12-20T10:54:44.731Z,3840
2016-12-20T10:55:55.442Z,3640
2016-12-20T10:57:06.170Z,3808
2016-12-20T10:58:16.908Z,3492
2016-12-20T10:59:27.633Z,3304
2016-12-20T11:00:38.356Z,3140
2016-12-20T11:01:49.104Z,3580
2016-12-20T11:02:59.850Z,3288
2016-12-20T11:04:10.571Z,3408
2016-12-20T11:05:21.317Z,3252
2016-12-20T11:06:32.064Z,3364
2016-12-20T11:07:42.783Z,3520
2016-12-20T11:08:53.506Z,3524
2016-12-20T11:10:04.240Z,3588
2016-12-20T11:11:14.998Z,3740
2016-12-20T11:12:25.767Z,3960
2016-12-20T11:13:36.489Z,3288
2016-12-20T11:14:47.187Z,3244
2016-12-20T11:15:57.920Z,3200
2016-12-20T11:17:08.652Z,3252
2016-12-20T11:18:19.394Z,3064
2016-12-20T11:19:30.099Z,3144
2016-12-20T11:20:40.836Z,3484
2016-12-20T11:21:51.557Z,3300
2016-12-20T11:23:02.282Z,3068
2016-12-20T11:24:13.005Z,3032
2016-12-20T11:25:23.721Z,3568
2016-12-20T11:26:34.437Z,3624
2016-12-20T11:27:45.137Z,3144
2016-12-20T11:28:55.861Z,3224
2016-12-20T11:30:06.608Z,3244
2016-12-20T11:31:17.329Z,3508
2016-12-20T11:32:28.046Z,3448
2016-12-20T11:33:38.752Z,3460
2016-12-20T11:34:49.492Z,3168
2016-12-20T11:36:00.221Z,3116
2016-12-20T11:37:10.959Z,3340
2016-12-20T11:38:21.705Z,3272
2016-12-20T11:39:32.447Z,3144
2016-12-20T11:40:43.168Z,2760
2016-12-20T11:41:53.888Z,2680
2016-12-20T11:43:04.613Z,2808
2016-12-20T11:44:15.333Z,2780
2016-12-20T11:45:26.026Z,2940
2016-12-20T11:46:36.747Z,3016
2016-12-20T11:47:47.463Z,2624
2016-12-20T11:48:58.189Z,2952
2016-12-20T11:50:08.893Z,2636
2016-12-20T11:51:19.606Z,2868
2016-12-20T11:52:30.306Z,2480
2016-12-20T11:53:41.047Z,2324
2016-12-20T11:54:51.768Z,2452
2016-12-20T11:56:02.488Z,2408
2016-12-20T11:57:13.185Z,2536
2016-12-20T11:58:23.887Z,2184
2016-12-20T11:59:34.626Z,2200
2016-12-20T12:00:45.332Z,2276
2016-12-20T12:01:56.073Z,2080
2016-12-20T12:03:06.767Z,2236
2016-12-20T12:04:17.506Z,2108
2016-12-20T12:05:28.255Z,2272
2016-12-20T12:06:38.969Z,2184
2016-12-20T12:07:49.702Z,2572
2016-12-20T12:09:00.418Z,2724
2016-12-20T12:10:11.117Z,2924
2016-12-20T12:11:21.856Z,2864
2016-12-20T12:12:32.564Z,2940
2016-12-20T12:13:43.286Z,3004
2016-12-20T12:14:54.006Z,3180
2016-12-20T12:16:04.744Z,2996
2016-12-20T12:17:15.469Z,2800
2016-12-20T12:18:26.489Z,3224
2016-12-20T12:19:37.236Z,3064
2016-12-20T12:20:47.973Z,2872
2016-12-20T12:21:58.704Z,2680
2016-12-20T12:23:09.424Z,2916
2016-12-20T12:24:20.168Z,3096
2016-12-20T12:25:30.886Z,3012
2016-12-20T12:26:41.612Z,3304
2016-12-20T12:27:52.332Z,3228
2016-12-20T12:29:03.071Z,3304
2016-12-20T12:30:13.800Z,2844
2016-12-20T12:31:24.519Z,2920
2016-12-20T12:32:35.214Z,2712
2016-12-20T12:33:45.941Z,2776
2016-12-20T12:34:56.671Z,2676
2016-12-20T12:36:07.380Z,2880
2016-12-20T12:37:18.122Z,2900
2016-12-20T12:38:28.823Z,2884
2016-12-20T12:39:39.564Z,3172
2016-12-20T12:40:50.314Z,2676
2016-12-20T12:42:01.072Z,2700
2016-12-20T12:43:11.780Z,2516
2016-12-20T12:44:22.498Z,2524
2016-12-20T12:45:33.236Z,2724
2016-12-20T12:46:43.968Z,2648
2016-12-20T12:47:54.707Z,2660
2016-12-20T12:49:05.436Z,2316
2016-12-20T12:50:16.182Z,2296
2016-12-20T12:51:26.901Z,2308
2016-12-20T12:52:37.924Z,2168
2016-12-20T12:53:48.645Z,2240
2016-12-20T12:54:59.392Z,2548
2016-12-20T12:56:10.139Z,1736
2016-12-20T12:57:20.879Z,1948
2016-12-20T12:58:31.600Z,2656
2016-12-20T12:59:42.302Z,2556
2016-12-20T13:00:53.020Z,2544
2016-12-20T13:02:04.039Z,2328
2016-12-20T13:03:14.758Z,2512
2016-12-20T13:04:25.525Z,2468
2016-12-20T13:05:36.255Z,2208
2016-12-20T13:06:47.025Z,2280
2016-12-20T13:07:57.743Z,2220
2016-12-20T13:09:08.439Z,2128
2016-12-20T13:10:19.160Z,1844
2016-12-20T13:11:29.874Z,1848
2016-12-20T13:12:40.605Z,1536
2016-12-20T13:13:51.348Z,1572
2016-12-20T13:15:02.062Z,1716
2016-12-20T13:16:12.790Z,1656
2016-12-20T13:17:23.554Z,1712
2016-12-20T13:18:34.286Z,1768
2016-12-20T13:19:45.033Z,1700
2016-12-20T13:20:55.750Z,1704
2016-12-20T13:22:06.449Z,1652
2016-12-20T13:23:17.193Z,1656
2016-12-20T13:24:27.916Z,1648
2016-12-20T13:25:38.666Z,1648
2016-12-20T13:26:49.396Z,1672
2016-12-20T13:28:00.124Z,1544
2016-12-20T13:29:10.854Z,1576
2016-12-20T13:30:21.584Z,1460
2016-12-20T13:31:32.292Z,1444
2016-12-20T13:32:43.057Z,1444
2016-12-20T13:33:53.784Z,1560
2016-12-20T13:35:04.518Z,1360
2016-12-20T13:36:15.226Z,1420
2016-12-20T13:37:25.972Z,1580
2016-12-20T13:38:36.728Z,1472
2016-12-20T13:39:47.461Z,1580
2016-12-20T13:40:58.184Z,1448
2016-12-20T13:42:08.878Z,1468
2016-12-20T13:43:19.606Z,1392
2016-12-20T13:44:30.649Z,1288
2016-12-20T13:45:41.366Z,1348
2016-12-20T13:46:52.085Z,1184
2016-12-20T13:48:02.786Z,1160
2016-12-20T13:49:13.524Z,1116
2016-12-20T13:50:24.244Z,1120
2016-12-20T13:51:34.973Z,1088
2016-12-20T13:52:45.698Z,1052
2016-12-20T13:53:56.415Z,972
2016-12-20T13:55:07.158Z,860
2016-12-20T13:56:17.883Z,760
2016-12-20T13:57:28.605Z,744
2016-12-20T13:58:39.342Z,844
2016-12-20T13:59:50.069Z,916
2016-12-20T14:01:00.788Z,936
2016-12-20T14:02:11.512Z,816
2016-12-20T14:03:22.258Z,808
2016-12-20T14:04:33.000Z,936
2016-12-20T14:05:44.024Z,932
2016-12-20T14:06:54.747Z,912
2016-12-20T14:08:05.493Z,864
2016-12-20T14:09:16.239Z,984
2016-12-20T14:10:26.985Z,784
2016-12-20T14:11:37.727Z,756
2016-12-20T14:12:48.451Z,744
2016-12-20T14:13:59.173Z,640
2016-12-20T14:15:09.920Z,724
2016-12-20T14:16:20.636Z,632
2016-12-20T14:17:31.361Z,696
2016-12-20T14:18:42.104Z,708
2016-12-20T14:19:52.841Z,676
2016-12-20T14:21:03.577Z,716
2016-12-20T14:22:14.320Z,612
2016-12-20T14:23:25.047Z,576
2016-12-20T14:24:35.807Z,564
2016-12-20T14:25:46.528Z,544
2016-12-20T14:26:57.228Z,484
2016-12-20T14:28:07.968Z,516
2016-12-20T14:29:18.666Z,456
2016-12-20T14:30:29.687Z,460
2016-12-20T14:31:40.435Z,472
2016-12-20T14:32:51.159Z,496
2016-12-20T14:34:01.903Z,452
2016-12-20T14:35:12.662Z,396
2016-12-20T14:36:23.365Z,396
2016-12-20T14:37:34.089Z,352
2016-12-20T14:38:45.135Z,320
2016-12-20T14:39:55.856Z,320
2016-12-20T14:41:07.229Z,284
2016-12-20T14:42:17.922Z,264
2016-12-20T14:43:28.661Z,272
2016-12-20T14:44:39.387Z,232
2016-12-20T14:45:50.111Z,212
2016-12-20T14:47:00.853Z,208
2016-12-20T14:48:11.599Z,188
2016-12-20T14:49:22.320Z,180
2016-12-20T14:50:33.041Z,180
2016-12-20T14:51:43.765Z,164
2016-12-20T14:52:54.825Z,148
2016-12-20T14:54:05.557Z,144
2016-12-20T14:55:16.302Z,120
2016-12-20T14:56:27.038Z,116
2016-12-20T14:57:37.762Z,108
2016-12-20T14:58:48.507Z,104
2016-12-20T14:59:59.261Z,84
2016-12-20T15:01:09.985Z,76
2016-12-20T15:02:20.692Z,60
2016-12-20T15:03:31.424Z,64
2016-12-20T15:04:42.142Z,60
2016-12-20T15:05:52.869Z,44
2016-12-20T15:07:03.606Z,40
2016-12-20T15:08:14.335Z,32
2016-12-20T15:09:25.082Z,28
2016-12-20T15:10:35.798Z,24
2016-12-20T15:11:46.494Z,20
2016-12-20T15:12:57.197Z,16
2016-12-20T15:14:07.932Z,12
2016-12-20T15:15:18.660Z,12
2016-12-20T15:16:29.395Z,8
2016-12-20T15:17:40.120Z,8
2016-12-20T15:18:50.862Z,12
2016-12-20T15:20:01.594Z,8
2016-12-20T15:21:12.339Z,4
2016-12-20T15:22:23.065Z,4
2016-12-20T15:23:33.786Z,4
2016-12-20T15:24:44.529Z,4
2016-12-20T15:25:55.270Z,0
2016-12-20T15:27:05.993Z,4
2016-12-20T15:28:16.712Z,4
2016-12-20T15:29:27.486Z,4
2016-12-20T15:30:38.200Z,0
2016-12-20T15:31:48.930Z,0
2016-12-20T15:32:59.646Z,0
2016-12-20T15:34:10.385Z,0
2016-12-20T15:35:21.117Z,0
2016-12-20T15:36:31.840Z,0
2016-12-20T15:37:42.559Z,0
2016-12-20T15:38:53.298Z,0
2016-12-20T15:40:04.027Z,0
2016-12-20T15:41:14.791Z,0
2016-12-20T15:42:25.517Z,0
2016-12-20T15:43:36.240Z,0
2016-12-20T15:44:46.978Z,0
2016-12-20T15:45:57.730Z,0
2016-12-20T15:47:08.749Z,0
2016-12-20T15:48:19.470Z,0
2016-12-20T15:49:30.200Z,0
2016-12-20T15:50:40.962Z,0
2016-12-20T15:51:51.661Z,0
2016-12-20T15:53:02.381Z,0
2016-12-20T15:54:13.107Z,0
2016-12-20T15:55:23.846Z,0
2016-12-20T15:56:34.542Z,0
2016-12-20T15:57:45.247Z,0
2016-12-20T15:58:56.306Z,0
2016-12-20T16:00:07.034Z,0
2016-12-20T16:01:17.756Z,0
2016-12-20T16:02:28.501Z,0
2016-12-20T16:03:39.228Z,0
2016-12-20T16:04:49.962Z,0
2016-12-20T16:06:00.685Z,0
2016-12-20T16:07:11.390Z,0
2016-12-20T16:08:22.149Z,0
2016-12-20T16:09:32.848Z,0
2016-12-20T16:10:43.547Z,0
2016-12-20T16:11:54.246Z,0
2016-12-20T16:13:04.982Z,0
2016-12-20T16:14:15.687Z,0
2016-12-20T16:15:26.429Z,0
2016-12-20T16:16:37.129Z,0
2016-12-20T16:17:48.150Z,0
2016-12-20T16:18:58.888Z,0
2016-12-20T16:20:09.613Z,0
2016-12-20T16:21:20.356Z,0
2016-12-20T16:22:31.073Z,0
2016-12-20T16:23:41.809Z,0
2016-12-20T16:24:52.851Z,0
2016-12-20T16:26:03.600Z,0
2016-12-20T16:27:14.339Z,0
2016-12-20T16:28:25.060Z,0
2016-12-20T16:29:35.777Z,0
2016-12-20T16:30:46.481Z,0
2016-12-20T16:31:57.224Z,0
2016-12-20T16:33:07.969Z,0
2016-12-20T16:34:18.687Z,0
2016-12-20T16:35:29.411Z,0
2016-12-20T16:36:40.135Z,0